createdAt,value
2018-03-27T00:00:06.372Z,87.03
2018-03-27T00:02:33.918Z,86.80
2018-03-27T00:05:01.503Z,83.87
2018-03-27T00:07:29.827Z,85.03
2018-03-27T00:09:57.380Z,90.00
2018-03-27T00:12:24.965Z,83.00
2018-03-27T00:14:52.532Z,87.77
2018-03-27T00:17:20.095Z,92.30
2018-03-27T00:19:47.700Z,85.30
2018-03-27T00:22:15.267Z,84.10
2018-03-27T00:24:42.815Z,81.70
2018-03-27T00:27:10.680Z,87.03
2018-03-27T00:29:50.928Z,87.00
2018-03-27T00:32:31.176Z,90.57
2018-03-27T00:35:10.608Z,85.87
2018-03-27T00:37:50.219Z,90.97
2018-03-27T00:40:29.719Z,97.70
2018-03-27T00:42:58.989Z,90.93
2018-03-27T00:45:26.543Z,91.20
2018-03-27T00:47:54.099Z,95.07
2018-03-27T00:50:21.693Z,103.87
2018-03-27T00:52:50.011Z,92.93
2018-03-27T00:55:17.570Z,105.33
2018-03-27T00:57:45.182Z,104.30
2018-03-27T01:00:12.747Z,103.00
2018-03-27T01:02:40.317Z,96.50
2018-03-27T01:05:09.523Z,99.97
2018-03-27T01:07:37.110Z,95.33
2018-03-27T01:10:04.677Z,90.10
2018-03-27T01:12:32.273Z,111.23
2018-03-27T01:14:59.820Z,91.43
2018-03-27T01:17:27.379Z,95.53
2018-03-27T01:20:01.137Z,102.90
2018-03-27T01:22:28.696Z,97.67
2018-03-27T01:24:56.291Z,101.27
2018-03-27T01:27:23.887Z,97.73
2018-03-27T01:29:51.446Z,95.23
2018-03-27T01:32:19.003Z,88.73
2018-03-27T01:34:46.591Z,96.17
2018-03-27T01:37:14.916Z,95.97
2018-03-27T01:39:42.479Z,99.13
2018-03-27T01:42:10.056Z,85.47
2018-03-27T01:44:37.639Z,85.93
2018-03-27T01:47:05.971Z,87.00
2018-03-27T01:49:33.562Z,83.83
2018-03-27T01:52:01.143Z,93.43
2018-03-27T01:54:29.523Z,88.07
2018-03-27T01:56:57.876Z,93.33
2018-03-27T01:59:25.427Z,102.77
2018-03-27T02:01:53.066Z,100.57
2018-03-27T02:04:20.661Z,96.53
2018-03-27T02:06:48.231Z,94.40
2018-03-27T02:09:15.808Z,94.97
2018-03-27T02:11:50.907Z,96.03
2018-03-27T02:14:24.156Z,91.93
2018-03-27T02:16:57.496Z,95.60
2018-03-27T02:22:03.128Z,91.03
2018-03-27T02:24:42.531Z,89.40
2018-03-27T02:27:10.107Z,92.13
2018-03-27T02:29:38.444Z,110.67
2018-03-27T02:32:06.002Z,105.83
2018-03-27T02:34:33.592Z,100.13
2018-03-27T02:37:01.154Z,95.37
2018-03-27T02:39:28.727Z,87.03
2018-03-27T02:41:57.087Z,96.83
2018-03-27T02:44:24.644Z,87.47
2018-03-27T02:46:52.191Z,97.87
2018-03-27T02:49:19.780Z,90.23
2018-03-27T02:51:47.352Z,91.70
2018-03-27T02:54:15.684Z,110.07
2018-03-27T02:56:43.288Z,114.23
2018-03-27T02:59:10.856Z,108.20
2018-03-27T03:01:38.409Z,114.93
2018-03-27T03:04:06.002Z,113.65
2018-03-27T03:06:33.572Z,106.07
2018-03-27T03:09:01.905Z,90.40
2018-03-27T03:11:30.252Z,90.10
2018-03-27T03:13:57.829Z,79.13
2018-03-27T03:16:26.164Z,82.63
2018-03-27T03:18:53.749Z,80.53
2018-03-27T03:21:21.317Z,88.00
2018-03-27T03:23:48.878Z,87.80
2018-03-27T03:26:16.464Z,82.05
2018-03-27T03:28:44.783Z,86.70
2018-03-27T03:31:12.355Z,81.60
2018-03-27T03:33:39.938Z,90.20
2018-03-27T03:36:07.505Z,89.63
2018-03-27T03:38:35.080Z,87.27
2018-03-27T03:41:03.422Z,79.23
2018-03-27T03:43:31.002Z,97.77
2018-03-27T03:45:58.555Z,93.17
2018-03-27T03:48:26.134Z,86.23
2018-03-27T03:50:54.465Z,101.43
2018-03-27T03:53:22.018Z,95.07
2018-03-27T03:55:49.621Z,97.03
2018-03-27T03:58:17.174Z,113.83
2018-03-27T04:00:44.732Z,103.27
2018-03-27T04:03:12.323Z,104.03
2018-03-27T04:05:40.683Z,104.93
2018-03-27T04:08:08.226Z,81.63
2018-03-27T04:10:35.802Z,101.43
2018-03-27T04:13:03.357Z,96.00
2018-03-27T04:15:30.921Z,106.00
2018-03-27T04:17:58.512Z,102.03
2018-03-27T04:20:26.057Z,82.60
2018-03-27T04:22:54.391Z,101.47
2018-03-27T04:25:21.989Z,95.77
2018-03-27T04:27:50.320Z,104.90
2018-03-27T04:30:17.881Z,103.38
2018-03-27T04:32:45.488Z,97.87
2018-03-27T04:35:13.072Z,95.87
2018-03-27T04:37:41.399Z,97.87
2018-03-27T04:40:08.977Z,109.03
2018-03-27T04:42:36.537Z,118.83
2018-03-27T04:45:04.087Z,91.93
2018-03-27T04:47:32.439Z,92.47
2018-03-27T04:49:59.992Z,94.07
2018-03-27T04:52:27.609Z,101.80
2018-03-27T04:54:55.185Z,96.27
2018-03-27T04:57:22.896Z,102.47
2018-03-27T04:59:50.490Z,85.43
2018-03-27T05:02:18.126Z,108.77
2018-03-27T05:04:45.684Z,89.27
2018-03-27T05:07:14.020Z,93.03
2018-03-27T05:09:42.377Z,95.30
2018-03-27T05:12:09.938Z,95.47
2018-03-27T05:14:37.582Z,92.93
2018-03-27T05:17:05.959Z,103.20
2018-03-27T05:19:33.531Z,101.87
2018-03-27T05:22:01.084Z,89.23
2018-03-27T05:24:28.746Z,92.57
2018-03-27T05:26:56.355Z,83.43
2018-03-27T05:29:23.932Z,88.43
2018-03-27T05:31:51.515Z,90.03
2018-03-27T05:34:19.074Z,86.57
2018-03-27T05:36:46.651Z,85.33
2018-03-27T05:39:14.241Z,86.87
2018-03-27T05:41:44.499Z,84.10
2018-03-27T05:44:12.051Z,83.63
2018-03-27T05:46:39.676Z,82.13
2018-03-27T05:49:07.230Z,84.70
2018-03-27T05:51:35.558Z,79.63
2018-03-27T05:54:03.128Z,86.17
2018-03-27T05:56:30.681Z,79.70
2018-03-27T05:58:58.276Z,77.40
2018-03-27T06:01:25.859Z,78.77
2018-03-27T06:03:54.179Z,77.50
2018-03-27T06:06:21.760Z,80.27
2018-03-27T06:08:49.354Z,80.33
2018-03-27T06:11:17.693Z,82.97
2018-03-27T06:13:45.259Z,89.23
2018-03-27T06:16:12.839Z,85.70
2018-03-27T06:18:41.092Z,74.30
2018-03-27T06:21:08.623Z,76.13
2018-03-27T06:23:36.207Z,74.60
2018-03-27T06:26:03.749Z,79.57
2018-03-27T06:28:31.362Z,76.13
2018-03-27T06:30:58.942Z,81.10
2018-03-27T06:33:27.258Z,70.93
2018-03-27T06:35:54.807Z,80.77
2018-03-27T06:38:22.385Z,80.00
2018-03-27T06:40:49.939Z,75.30
2018-03-27T06:43:17.493Z,78.47
2018-03-27T06:45:45.125Z,85.67
2018-03-27T06:48:13.450Z,83.37
2018-03-27T06:50:41.088Z,83.90
2018-03-27T06:53:08.671Z,75.00
2018-03-27T06:55:36.260Z,76.07
2018-03-27T06:58:03.886Z,74.57
2018-03-27T07:00:31.459Z,77.40
2018-03-27T07:02:59.047Z,75.27
2018-03-27T07:05:26.722Z,56.43
2018-03-27T07:07:54.259Z,60.55
2018-03-27T07:10:21.882Z,55.13
2018-03-27T07:12:49.439Z,54.25
2018-03-27T07:15:17.024Z,49.63
2018-03-27T07:17:44.572Z,47.90
2018-03-27T07:20:12.118Z,46.80
2018-03-27T07:22:39.699Z,47.10
2018-03-27T07:25:07.252Z,47.87
2018-03-27T07:27:38.243Z,48.53
2018-03-27T07:30:06.620Z,49.53
2018-03-27T07:32:34.940Z,43.60
2018-03-27T07:35:02.501Z,52.20
2018-03-27T07:37:30.081Z,52.37
2018-03-27T07:39:58.207Z,49.73
2018-03-27T07:42:25.777Z,51.93
2018-03-27T07:44:54.128Z,49.53
2018-03-27T07:47:22.482Z,51.87
2018-03-27T07:49:50.033Z,48.27
2018-03-27T07:52:17.610Z,49.20
2018-03-27T07:54:45.167Z,47.37
2018-03-27T07:57:12.727Z,53.00
2018-03-27T07:59:41.118Z,51.00
2018-03-27T08:02:08.671Z,46.35
2018-03-27T08:04:36.225Z,38.00
2018-03-27T08:07:03.810Z,41.37
2018-03-27T08:09:32.143Z,41.05
2018-03-27T08:11:59.712Z,38.70
2018-03-27T08:14:27.287Z,37.30
2018-03-27T08:16:54.845Z,37.17
2018-03-27T08:19:22.419Z,39.03
2018-03-27T08:21:49.995Z,37.07
2018-03-27T08:24:17.611Z,31.37
2018-03-27T08:26:45.160Z,32.50
2018-03-27T08:29:12.759Z,30.83
2018-03-27T08:31:40.320Z,30.93
2018-03-27T08:34:07.864Z,29.90
2018-03-27T08:36:35.447Z,26.93
2018-03-27T08:39:03.025Z,27.27
2018-03-27T08:41:31.341Z,27.90
2018-03-27T08:43:58.910Z,27.93
2018-03-27T08:46:26.480Z,23.63
2018-03-27T08:48:57.575Z,26.43
2018-03-27T08:51:29.644Z,25.60
2018-03-27T08:53:57.169Z,24.73
2018-03-27T08:56:24.725Z,28.30
2018-03-27T08:58:52.344Z,28.63
2018-03-27T09:01:19.912Z,28.63
2018-03-27T09:03:47.469Z,31.00
2018-03-27T09:06:15.034Z,26.80
2018-03-27T09:08:42.588Z,25.10
2018-03-27T09:11:10.175Z,27.60
2018-03-27T09:13:37.762Z,28.43
2018-03-27T09:16:05.313Z,32.37
2018-03-27T09:18:32.873Z,24.83
2018-03-27T09:21:00.460Z,27.53
2018-03-27T09:23:28.800Z,27.43
2018-03-27T09:25:57.290Z,25.80
2018-03-27T09:28:24.867Z,28.17
2018-03-27T09:30:52.412Z,26.80
2018-03-27T09:33:19.966Z,26.90
2018-03-27T09:35:47.535Z,22.70
2018-03-27T09:38:15.125Z,26.47
2018-03-27T09:40:43.449Z,23.43
2018-03-27T09:43:11.038Z,25.40
2018-03-27T09:45:38.596Z,20.90
2018-03-27T09:48:06.149Z,24.33
2018-03-27T09:50:33.768Z,21.93
2018-03-27T09:53:01.327Z,20.60
2018-03-27T09:55:29.028Z,19.10
2018-03-27T09:57:56.627Z,19.20
2018-03-27T10:00:30.513Z,18.90
2018-03-27T10:02:58.884Z,21.70
2018-03-27T10:05:26.448Z,19.97
2018-03-27T10:07:55.950Z,19.90
2018-03-27T10:10:23.608Z,15.80
2018-03-27T10:12:51.170Z,23.10
2018-03-27T10:15:18.728Z,18.30
2018-03-27T10:17:46.323Z,19.67
2018-03-27T10:20:14.650Z,19.40
2018-03-27T10:22:42.230Z,18.30
2018-03-27T10:25:10.752Z,22.00
2018-03-27T10:27:38.376Z,18.23
2018-03-27T10:30:05.985Z,18.27
2018-03-27T10:32:40.220Z,13.83
2018-03-27T10:35:07.785Z,16.50
2018-03-27T10:37:36.144Z,19.90
2018-03-27T10:40:04.503Z,17.57
2018-03-27T10:42:32.894Z,19.63
2018-03-27T10:45:07.884Z,17.20
2018-03-27T10:47:35.488Z,19.40
2018-03-27T10:50:03.824Z,21.33
2018-03-27T10:52:31.435Z,20.23
2018-03-27T10:54:59.771Z,20.63
2018-03-27T10:57:27.336Z,22.17
2018-03-27T10:59:55.021Z,20.00
2018-03-27T11:02:24.057Z,22.80
2018-03-27T11:04:51.966Z,21.27
2018-03-27T11:07:19.563Z,22.40
2018-03-27T11:09:47.172Z,18.40
2018-03-27T11:12:14.730Z,21.23
2018-03-27T11:14:42.343Z,20.93
2018-03-27T11:17:09.901Z,19.57
2018-03-27T11:19:38.243Z,20.30
2018-03-27T11:22:05.859Z,19.43
2018-03-27T11:24:33.424Z,21.40
2018-03-27T11:27:01.927Z,23.03
2018-03-27T11:29:29.508Z,23.43
2018-03-27T11:31:57.087Z,22.30
2018-03-27T11:34:24.636Z,20.37
2018-03-27T11:36:52.346Z,20.87
2018-03-27T11:39:19.911Z,20.17
2018-03-27T11:41:47.492Z,19.83
2018-03-27T11:44:15.084Z,21.10
2018-03-27T11:46:42.651Z,21.27
2018-03-27T11:49:10.210Z,21.43
2018-03-27T11:51:41.591Z,21.90
2018-03-27T11:54:09.210Z,23.53
2018-03-27T11:56:36.764Z,22.00
2018-03-27T11:59:04.357Z,19.23
2018-03-27T12:01:31.944Z,22.37
2018-03-27T12:03:59.500Z,20.20
2018-03-27T12:06:27.220Z,20.90
2018-03-27T12:08:54.790Z,19.00
2018-03-27T12:11:22.353Z,23.40
2018-03-27T12:13:49.951Z,18.33
2018-03-27T12:16:17.498Z,20.83
2018-03-27T12:18:45.086Z,23.90
2018-03-27T12:21:12.697Z,19.53
2018-03-27T12:23:41.036Z,19.93
2018-03-27T12:26:08.613Z,21.57
2018-03-27T12:28:36.201Z,21.40
2018-03-27T12:31:04.526Z,21.83
2018-03-27T12:33:32.100Z,21.13
2018-03-27T12:35:59.710Z,21.40
2018-03-27T12:38:28.043Z,23.20
2018-03-27T12:40:55.600Z,24.77
2018-03-27T12:43:23.192Z,19.33
2018-03-27T12:45:50.806Z,18.53
2018-03-27T12:48:18.382Z,17.57
2018-03-27T12:50:46.007Z,18.27
2018-03-27T12:53:13.618Z,18.33
2018-03-27T12:55:41.211Z,17.07
2018-03-27T12:58:08.820Z,19.63
2018-03-27T13:00:36.396Z,17.20
2018-03-27T13:03:04.007Z,19.17
2018-03-27T13:05:31.616Z,18.43
2018-03-27T13:07:59.264Z,17.37
2018-03-27T13:10:26.830Z,16.27
2018-03-27T13:12:54.407Z,14.40
2018-03-27T13:15:28.159Z,14.03
2018-03-27T13:17:55.800Z,14.40
2018-03-27T13:20:24.152Z,14.85
2018-03-27T13:22:51.772Z,17.33
2018-03-27T13:25:19.368Z,14.60
2018-03-27T13:27:46.942Z,14.80
2018-03-27T13:30:15.422Z,14.97
2018-03-27T13:32:43.025Z,12.98
2018-03-27T13:35:11.343Z,14.10
2018-03-27T13:37:38.902Z,14.80
2018-03-27T13:40:06.622Z,13.47
2018-03-27T13:42:34.961Z,15.93
2018-03-27T13:45:02.539Z,13.67
2018-03-27T13:47:30.118Z,15.63
2018-03-27T13:49:58.443Z,14.67
2018-03-27T13:52:26.020Z,13.30
2018-03-27T13:54:53.628Z,11.60
2018-03-27T13:57:21.958Z,14.13
2018-03-27T13:59:49.538Z,15.13
2018-03-27T14:02:17.182Z,13.63
2018-03-27T14:04:45.224Z,12.67
2018-03-27T14:07:12.902Z,12.80
2018-03-27T14:09:40.518Z,13.53
2018-03-27T14:12:08.902Z,14.40
2018-03-27T14:14:36.466Z,13.13
2018-03-27T14:17:05.731Z,11.63
2018-03-27T14:19:33.306Z,12.50
2018-03-27T14:22:01.644Z,13.47
2018-03-27T14:24:29.252Z,13.20
2018-03-27T14:26:57.610Z,14.40
2018-03-27T14:29:25.223Z,16.13
2018-03-27T14:31:52.881Z,14.50
2018-03-27T14:34:20.459Z,14.40
2018-03-27T14:36:48.034Z,13.53
2018-03-27T14:39:15.608Z,14.43
2018-03-27T14:41:43.925Z,11.27
2018-03-27T14:44:12.344Z,12.73
2018-03-27T14:46:39.959Z,14.93
2018-03-27T14:49:08.296Z,15.07
2018-03-27T14:51:35.893Z,15.00
2018-03-27T14:54:04.283Z,13.13
2018-03-27T14:56:32.647Z,13.10
2018-03-27T14:59:00.989Z,15.20
2018-03-27T15:01:28.624Z,19.53
2018-03-27T15:03:56.201Z,12.60
2018-03-27T15:06:23.798Z,12.93
2018-03-27T15:08:51.389Z,11.27
2018-03-27T15:11:19.697Z,11.40
2018-03-27T15:13:47.259Z,16.57
2018-03-27T15:16:14.855Z,13.53
2018-03-27T15:18:42.408Z,16.10
2018-03-27T15:21:09.983Z,15.67
2018-03-27T15:23:37.617Z,13.30
2018-03-27T15:26:05.170Z,12.03
2018-03-27T15:28:32.759Z,14.97
2018-03-27T15:31:00.348Z,13.47
2018-03-27T15:33:28.768Z,12.53
2018-03-27T15:35:56.365Z,14.97
2018-03-27T15:38:23.952Z,11.80
2018-03-27T15:40:52.378Z,11.43
2018-03-27T15:43:19.942Z,16.70
2018-03-27T15:45:47.532Z,17.17
2018-03-27T15:48:15.082Z,15.73
2018-03-27T15:50:42.659Z,14.17
2018-03-27T15:53:11.028Z,15.37
2018-03-27T15:55:38.636Z,13.77
2018-03-27T15:58:07.019Z,15.07
2018-03-27T16:00:34.645Z,13.90
2018-03-27T16:03:02.210Z,12.80
2018-03-27T16:05:30.519Z,15.20
2018-03-27T16:08:04.410Z,12.70
2018-03-27T16:10:36.574Z,14.53
2018-03-27T16:13:04.937Z,14.63
2018-03-27T16:15:33.272Z,12.30
2018-03-27T16:18:00.846Z,16.70
2018-03-27T16:20:28.607Z,14.73
2018-03-27T16:22:56.166Z,14.97
2018-03-27T16:25:23.712Z,13.30
2018-03-27T16:27:51.362Z,18.50
2018-03-27T16:30:18.927Z,18.23
2018-03-27T16:32:46.491Z,19.90
2018-03-27T16:35:14.070Z,17.43
2018-03-27T16:37:41.654Z,17.43
2018-03-27T16:40:10.063Z,19.77
2018-03-27T16:42:38.420Z,15.47
2018-03-27T16:45:06.311Z,19.87
2018-03-27T16:47:34.656Z,20.17
2018-03-27T16:50:03.254Z,19.30
2018-03-27T16:52:31.642Z,18.83
2018-03-27T16:54:59.257Z,17.10
2018-03-27T16:57:26.840Z,19.40
2018-03-27T16:59:54.453Z,18.47
2018-03-27T17:02:22.070Z,18.40
2018-03-27T17:04:49.692Z,17.57
2018-03-27T17:07:17.240Z,19.40
2018-03-27T17:09:44.807Z,14.90
2018-03-27T17:12:12.411Z,18.73
2018-03-27T17:14:40.002Z,16.70
2018-03-27T17:17:08.347Z,18.70
2018-03-27T17:19:35.941Z,19.33
2018-03-27T17:22:03.535Z,19.97
2018-03-27T17:24:31.091Z,16.37
2018-03-27T17:26:58.660Z,15.57
2018-03-27T17:29:29.488Z,16.40
2018-03-27T17:31:57.058Z,14.60
2018-03-27T17:34:24.820Z,17.00
2018-03-27T17:36:53.154Z,17.10
2018-03-27T17:39:21.469Z,18.90
2018-03-27T17:41:49.070Z,15.23
2018-03-27T17:44:16.641Z,18.27
2018-03-27T17:46:45.719Z,19.83
2018-03-27T17:49:14.649Z,18.30
2018-03-27T17:51:42.355Z,20.17
2018-03-27T17:54:09.914Z,17.50
2018-03-27T17:56:37.506Z,16.93
2018-03-27T17:59:05.060Z,19.80
2018-03-27T18:01:32.621Z,25.03
2018-03-27T18:04:00.256Z,24.57
2018-03-27T18:06:29.266Z,21.50
2018-03-27T18:08:56.876Z,19.80
2018-03-27T18:11:25.266Z,24.50
2018-03-27T18:13:52.823Z,19.90
2018-03-27T18:16:20.395Z,23.57
2018-03-27T18:18:47.991Z,22.07
2018-03-27T18:21:15.542Z,21.20
2018-03-27T18:23:43.100Z,22.43
2018-03-27T18:26:10.718Z,20.73
2018-03-27T18:28:39.044Z,22.07
2018-03-27T18:31:06.597Z,22.07
2018-03-27T18:33:34.175Z,22.77
2018-03-27T18:36:02.496Z,21.20
2018-03-27T18:38:30.808Z,25.33
2018-03-27T18:40:58.393Z,21.00
2018-03-27T18:43:25.969Z,22.00
2018-03-27T18:45:53.539Z,24.00
2018-03-27T18:48:21.115Z,20.80
2018-03-27T18:50:48.687Z,27.20
2018-03-27T18:53:16.252Z,19.70
2018-03-27T18:55:43.847Z,21.73
2018-03-27T18:58:11.396Z,22.57
2018-03-27T19:00:38.953Z,23.20
2018-03-27T19:03:06.584Z,21.93
2018-03-27T19:05:34.899Z,22.30
2018-03-27T19:08:02.453Z,26.60
2018-03-27T19:10:30.071Z,21.83
2018-03-27T19:12:57.638Z,25.30
2018-03-27T19:15:26.011Z,20.77
2018-03-27T19:17:58.025Z,21.33
2018-03-27T19:20:25.581Z,24.43
2018-03-27T19:22:53.192Z,22.50
2018-03-27T19:25:21.535Z,23.87
2018-03-27T19:27:49.153Z,27.10
2018-03-27T19:30:16.704Z,22.53
2018-03-27T19:32:45.073Z,23.13
2018-03-27T19:35:13.406Z,23.02
2018-03-27T19:37:40.999Z,22.10
2018-03-27T19:40:08.591Z,24.00
2018-03-27T19:42:37.837Z,24.03
2018-03-27T19:45:05.397Z,24.17
2018-03-27T19:47:32.994Z,25.37
2018-03-27T19:50:01.336Z,21.97
2018-03-27T19:52:28.930Z,28.07
2018-03-27T19:54:56.492Z,23.93
2018-03-27T19:57:24.853Z,23.77
2018-03-27T19:59:52.426Z,22.53
2018-03-27T20:02:20.042Z,24.43
2018-03-27T20:04:47.613Z,25.70
2018-03-27T20:07:15.175Z,24.40
2018-03-27T20:09:42.783Z,25.43
2018-03-27T20:12:11.115Z,25.77
2018-03-27T20:14:38.708Z,26.03
2018-03-27T20:17:07.094Z,22.70
2018-03-27T20:19:35.441Z,24.93
2018-03-27T20:22:03.022Z,20.83
2018-03-27T20:24:31.563Z,25.37
2018-03-27T20:26:59.148Z,29.70
2018-03-27T20:29:26.719Z,27.67
2018-03-27T20:31:54.317Z,27.00
2018-03-27T20:34:21.866Z,26.60
2018-03-27T20:36:50.225Z,31.80
2018-03-27T20:39:17.840Z,26.50
2018-03-27T20:41:45.395Z,28.33
2018-03-27T20:44:12.973Z,31.77
2018-03-27T20:46:40.559Z,28.40
2018-03-27T20:49:08.171Z,31.13
2018-03-27T20:51:35.871Z,31.90
2018-03-27T20:54:03.452Z,25.97
2018-03-27T20:56:31.016Z,33.40
2018-03-27T20:58:58.569Z,26.93
2018-03-27T21:01:26.147Z,33.77
2018-03-27T21:03:53.714Z,27.83
2018-03-27T21:06:22.041Z,26.63
2018-03-27T21:08:49.628Z,25.33
2018-03-27T21:11:17.198Z,30.63
2018-03-27T21:13:44.774Z,29.20
2018-03-27T21:16:12.386Z,29.10
2018-03-27T21:18:39.948Z,28.60
2018-03-27T21:21:08.466Z,30.63
2018-03-27T21:23:36.038Z,25.97
2018-03-27T21:26:04.370Z,27.97
2018-03-27T21:28:31.946Z,24.10
2018-03-27T21:30:59.575Z,26.00
2018-03-27T21:33:27.181Z,30.93
2018-03-27T21:35:54.750Z,27.93
2018-03-27T21:38:22.342Z,25.10
2018-03-27T21:40:49.920Z,20.77
2018-03-27T21:43:17.491Z,24.83
2018-03-27T21:45:45.089Z,26.33
2018-03-27T21:48:12.638Z,23.73
2018-03-27T21:50:40.201Z,23.07
2018-03-27T21:53:07.778Z,23.20
2018-03-27T21:55:36.135Z,25.10
2018-03-27T21:58:03.740Z,24.23
2018-03-27T22:00:31.360Z,29.67
2018-03-27T22:02:58.920Z,21.73
2018-03-27T22:05:26.500Z,30.70
2018-03-27T22:07:54.860Z,21.93
2018-03-27T22:10:22.423Z,21.93
2018-03-27T22:12:49.988Z,24.33
2018-03-27T22:15:17.574Z,24.10
2018-03-27T22:17:45.900Z,22.00
2018-03-27T22:20:13.442Z,21.10
2018-03-27T22:22:41.020Z,21.40
2018-03-27T22:25:08.578Z,25.80
2018-03-27T22:27:36.154Z,21.60
2018-03-27T22:30:03.791Z,21.83
2018-03-27T22:32:31.354Z,20.70
2018-03-27T22:34:58.906Z,20.63
2018-03-27T22:37:26.503Z,19.70
2018-03-27T22:39:54.825Z,21.00
2018-03-27T22:42:23.139Z,20.03
2018-03-27T22:44:50.725Z,19.47
2018-03-27T22:47:18.286Z,17.23
2018-03-27T22:49:45.843Z,18.97
2018-03-27T22:52:13.449Z,17.23
2018-03-27T22:54:41.783Z,18.03
2018-03-27T22:57:09.348Z,17.27
2018-03-27T22:59:36.926Z,16.83
2018-03-27T23:02:04.484Z,16.73
2018-03-27T23:04:32.040Z,16.87
2018-03-27T23:06:59.632Z,13.97
2018-03-27T23:09:27.179Z,16.70
2018-03-27T23:11:55.510Z,14.43
2018-03-27T23:14:23.101Z,13.40
2018-03-27T23:16:50.656Z,17.30
2018-03-27T23:19:18.208Z,15.50
2018-03-27T23:21:45.821Z,16.50
2018-03-27T23:24:13.371Z,14.57
2018-03-27T23:26:41.690Z,14.40
2018-03-27T23:29:09.272Z,12.40
2018-03-27T23:31:36.836Z,16.13
2018-03-27T23:34:04.387Z,14.23
2018-03-27T23:36:31.973Z,14.60
2018-03-27T23:39:00.301Z,14.90
2018-03-27T23:41:28.617Z,15.07
2018-03-27T23:43:56.206Z,12.63
2018-03-27T23:46:23.809Z,16.03
2018-03-27T23:48:51.380Z,14.38
2018-03-27T23:51:18.980Z,13.77
2018-03-27T23:53:47.298Z,16.87
2018-03-27T23:56:14.869Z,13.80
2018-03-27T23:58:42.452Z,18.97
